sensor_id;sensor_type;location;lat;lon;timestamp;temperature;humidity
9482;DHT22;4779;48.062;11.672;2023-12-28T00:00:15;2.90;99.90
9482;DHT22;4779;48.062;11.672;2023-12-28T00:02:42;2.90;99.90
9482;DHT22;4779;48.062;11.672;2023-12-28T00:05:09;2.90;99.90
9482;DHT22;4779;48.062;11.672;2023-12-28T00:07:36;2.90;99.90
9482;DHT22;4779;48.062;11.672;2023-12-28T00:10:12;3.00;99.90
9482;DHT22;4779;48.062;11.672;2023-12-28T00:12:39;2.90;99.90
9482;DHT22;4779;48.062;11.672;2023-12-28T00:15:07;2.90;99.90
9482;DHT22;4779;48.062;11.672;2023-12-28T00:17:35;2.80;99.90
9482;DHT22;4779;48.062;11.672;2023-12-28T00:20:03;2.70;99.90
9482;DHT22;4779;48.062;11.672;2023-12-28T00:22:30;2.70;99.90
9482;DHT22;4779;48.062;11.672;2023-12-28T00:24:57;2.70;99.90
9482;DHT22;4779;48.062;11.672;2023-12-28T00:27:24;2.80;99.90
9482;DHT22;4779;48.062;11.672;2023-12-28T00:29:51;2.70;99.90
9482;DHT22;4779;48.062;11.672;2023-12-28T00:32:18;2.70;99.90
9482;DHT22;4779;48.062;11.672;2023-12-28T00:34:47;2.70;99.90
9482;DHT22;4779;48.062;11.672;2023-12-28T00:37:14;2.60;99.90
9482;DHT22;4779;48.062;11.672;2023-12-28T00:39:41;2.60;99.90
9482;DHT22;4779;48.062;11.672;2023-12-28T00:42:08;2.60;99.90
9482;DHT22;4779;48.062;11.672;2023-12-28T00:44:35;2.60;99.90
9482;DHT22;4779;48.062;11.672;2023-12-28T00:47:02;2.70;99.90
9482;DHT22;4779;48.062;11.672;2023-12-28T00:49:30;2.60;99.90
9482;DHT22;4779;48.062;11.672;2023-12-28T00:51:58;2.50;99.90
9482;DHT22;4779;48.062;11.672;2023-12-28T00:56:52;4.10;99.90
9482;DHT22;4779;48.062;11.672;2023-12-28T00:59:19;2.30;99.90
9482;DHT22;4779;48.062;11.672;2023-12-28T01:01:46;2.40;99.90
9482;DHT22;4779;48.062;11.672;2023-12-28T01:04:13;2.40;99.90
9482;DHT22;4779;48.062;11.672;2023-12-28T01:06:40;2.40;99.90
9482;DHT22;4779;48.062;11.672;2023-12-28T01:09:09;2.40;99.90
9482;DHT22;4779;48.062;11.672;2023-12-28T01:11:36;2.30;99.90
9482;DHT22;4779;48.062;11.672;2023-12-28T01:14:03;2.40;99.90
9482;DHT22;4779;48.062;11.672;2023-12-28T01:16:30;2.40;99.90
9482;DHT22;4779;48.062;11.672;2023-12-28T01:18:57;2.40;99.90
9482;DHT22;4779;48.062;11.672;2023-12-28T01:21:24;2.40;99.90
9482;DHT22;4779;48.062;11.672;2023-12-28T01:23:51;2.30;99.90
9482;DHT22;4779;48.062;11.672;2023-12-28T01:26:19;2.30;99.90
9482;DHT22;4779;48.062;11.672;2023-12-28T01:28:46;2.30;99.90
9482;DHT22;4779;48.062;11.672;2023-12-28T01:31:13;2.30;99.90
9482;DHT22;4779;48.062;11.672;2023-12-28T01:33:40;2.20;99.90
9482;DHT22;4779;48.062;11.672;2023-12-28T01:36:16;2.20;99.90
9482;DHT22;4779;48.062;11.672;2023-12-28T01:38:43;2.10;99.90
9482;DHT22;4779;48.062;11.672;2023-12-28T01:41:10;2.20;99.90
9482;DHT22;4779;48.062;11.672;2023-12-28T01:43:39;2.20;99.90
9482;DHT22;4779;48.062;11.672;2023-12-28T01:46:10;2.20;99.90
9482;DHT22;4779;48.062;11.672;2023-12-28T01:48:40;2.10;99.90
9482;DHT22;4779;48.062;11.672;2023-12-28T01:51:08;2.10;99.90
9482;DHT22;4779;48.062;11.672;2023-12-28T01:53:35;2.10;99.90
9482;DHT22;4779;48.062;11.672;2023-12-28T01:56:03;2.20;99.90
9482;DHT22;4779;48.062;11.672;2023-12-28T01:58:33;2.10;99.90
9482;DHT22;4779;48.062;11.672;2023-12-28T02:01:03;2.20;99.90
9482;DHT22;4779;48.062;11.672;2023-12-28T02:03:30;2.10;99.90
9482;DHT22;4779;48.062;11.672;2023-12-28T02:05:58;2.00;99.90
9482;DHT22;4779;48.062;11.672;2023-12-28T02:08:26;2.10;99.90
9482;DHT22;4779;48.062;11.672;2023-12-28T02:10:53;2.10;99.90
9482;DHT22;4779;48.062;11.672;2023-12-28T02:13:21;2.10;99.90
9482;DHT22;4779;48.062;11.672;2023-12-28T02:16:00;2.10;99.90
9482;DHT22;4779;48.062;11.672;2023-12-28T02:18:41;2.10;99.90
9482;DHT22;4779;48.062;11.672;2023-12-28T02:21:09;2.10;99.90
9482;DHT22;4779;48.062;11.672;2023-12-28T02:23:37;2.10;99.90
9482;DHT22;4779;48.062;11.672;2023-12-28T02:26:06;2.10;99.90
9482;DHT22;4779;48.062;11.672;2023-12-28T02:28:33;2.00;99.90
9482;DHT22;4779;48.062;11.672;2023-12-28T02:31:01;2.00;99.90
9482;DHT22;4779;48.062;11.672;2023-12-28T02:33:36;2.10;99.90
9482;DHT22;4779;48.062;11.672;2023-12-28T02:36:07;2.10;99.90
9482;DHT22;4779;48.062;11.672;2023-12-28T02:38:37;2.10;99.90
9482;DHT22;4779;48.062;11.672;2023-12-28T02:41:07;2.20;99.90
9482;DHT22;4779;48.062;11.672;2023-12-28T02:43:34;2.10;99.90
9482;DHT22;4779;48.062;11.672;2023-12-28T02:46:01;2.20;99.90
9482;DHT22;4779;48.062;11.672;2023-12-28T02:48:29;2.30;99.90
9482;DHT22;4779;48.062;11.672;2023-12-28T02:50:56;2.20;99.90
9482;DHT22;4779;48.062;11.672;2023-12-28T02:53:23;2.20;99.90
9482;DHT22;4779;48.062;11.672;2023-12-28T02:55:50;2.20;99.90
9482;DHT22;4779;48.062;11.672;2023-12-28T02:58:18;2.20;99.90
9482;DHT22;4779;48.062;11.672;2023-12-28T03:00:46;2.20;99.90
9482;DHT22;4779;48.062;11.672;2023-12-28T03:03:14;2.20;99.90
9482;DHT22;4779;48.062;11.672;2023-12-28T03:05:41;2.20;99.90
9482;DHT22;4779;48.062;11.672;2023-12-28T03:08:08;2.20;99.90
9482;DHT22;4779;48.062;11.672;2023-12-28T03:10:35;2.20;99.90
9482;DHT22;4779;48.062;11.672;2023-12-28T03:13:02;2.20;99.90
9482;DHT22;4779;48.062;11.672;2023-12-28T03:15:31;2.20;99.90
9482;DHT22;4779;48.062;11.672;2023-12-28T03:17:58;2.20;99.90
9482;DHT22;4779;48.062;11.672;2023-12-28T03:20:25;2.20;99.90
9482;DHT22;4779;48.062;11.672;2023-12-28T03:22:52;2.20;99.90
9482;DHT22;4779;48.062;11.672;2023-12-28T03:25:19;2.30;99.90
9482;DHT22;4779;48.062;11.672;2023-12-28T03:27:46;2.30;99.90
9482;DHT22;4779;48.062;11.672;2023-12-28T03:30:13;2.30;99.90
9482;DHT22;4779;48.062;11.672;2023-12-28T03:32:41;2.30;99.90
9482;DHT22;4779;48.062;11.672;2023-12-28T03:35:08;2.40;99.90
9482;DHT22;4779;48.062;11.672;2023-12-28T03:37:35;2.30;99.90
9482;DHT22;4779;48.062;11.672;2023-12-28T03:40:03;2.30;99.90
9482;DHT22;4779;48.062;11.672;2023-12-28T03:42:30;2.30;99.90
9482;DHT22;4779;48.062;11.672;2023-12-28T03:44:57;2.40;99.90
9482;DHT22;4779;48.062;11.672;2023-12-28T03:47:24;2.40;99.90
9482;DHT22;4779;48.062;11.672;2023-12-28T03:49:52;2.30;99.90
9482;DHT22;4779;48.062;11.672;2023-12-28T03:52:22;2.40;99.90
9482;DHT22;4779;48.062;11.672;2023-12-28T03:54:49;2.40;99.90
9482;DHT22;4779;48.062;11.672;2023-12-28T03:57:16;2.30;99.90
9482;DHT22;4779;48.062;11.672;2023-12-28T03:59:43;2.40;99.90
9482;DHT22;4779;48.062;11.672;2023-12-28T04:02:10;2.30;99.90
9482;DHT22;4779;48.062;11.672;2023-12-28T04:04:37;2.30;99.90
9482;DHT22;4779;48.062;11.672;2023-12-28T04:07:06;2.30;99.90
9482;DHT22;4779;48.062;11.672;2023-12-28T04:09:34;2.30;99.90
9482;DHT22;4779;48.062;11.672;2023-12-28T04:12:01;2.30;99.90
9482;DHT22;4779;48.062;11.672;2023-12-28T04:14:28;2.40;99.90
9482;DHT22;4779;48.062;11.672;2023-12-28T04:16:55;2.60;99.90
9482;DHT22;4779;48.062;11.672;2023-12-28T04:19:22;2.80;99.90
9482;DHT22;4779;48.062;11.672;2023-12-28T04:21:49;3.00;99.90
9482;DHT22;4779;48.062;11.672;2023-12-28T04:24:17;3.20;99.90
9482;DHT22;4779;48.062;11.672;2023-12-28T04:26:44;3.20;99.90
9482;DHT22;4779;48.062;11.672;2023-12-28T04:29:11;3.10;99.90
9482;DHT22;4779;48.062;11.672;2023-12-28T04:31:40;3.10;99.90
9482;DHT22;4779;48.062;11.672;2023-12-28T04:34:07;3.10;99.90
9482;DHT22;4779;48.062;11.672;2023-12-28T04:36:40;3.00;99.90
9482;DHT22;4779;48.062;11.672;2023-12-28T04:39:07;3.00;99.90
9482;DHT22;4779;48.062;11.672;2023-12-28T04:41:35;2.90;99.90
9482;DHT22;4779;48.062;11.672;2023-12-28T04:44:03;3.10;99.90
9482;DHT22;4779;48.062;11.672;2023-12-28T04:46:30;3.20;99.90
9482;DHT22;4779;48.062;11.672;2023-12-28T04:48:57;3.30;99.90
9482;DHT22;4779;48.062;11.672;2023-12-28T04:51:24;3.10;99.90
9482;DHT22;4779;48.062;11.672;2023-12-28T04:53:51;3.10;99.90
9482;DHT22;4779;48.062;11.672;2023-12-28T04:56:18;3.10;99.90
9482;DHT22;4779;48.062;11.672;2023-12-28T04:58:47;3.00;99.90
9482;DHT22;4779;48.062;11.672;2023-12-28T05:01:14;3.00;99.90
9482;DHT22;4779;48.062;11.672;2023-12-28T05:03:41;3.00;99.90
9482;DHT22;4779;48.062;11.672;2023-12-28T05:06:08;2.90;99.90
9482;DHT22;4779;48.062;11.672;2023-12-28T05:08:35;2.90;99.90
9482;DHT22;4779;48.062;11.672;2023-12-28T05:11:02;2.90;99.90
9482;DHT22;4779;48.062;11.672;2023-12-28T05:13:29;3.00;99.90
9482;DHT22;4779;48.062;11.672;2023-12-28T05:15:57;2.90;99.90
9482;DHT22;4779;48.062;11.672;2023-12-28T05:18:24;3.10;99.90
9482;DHT22;4779;48.062;11.672;2023-12-28T05:20:52;3.20;99.90
9482;DHT22;4779;48.062;11.672;2023-12-28T05:23:19;3.20;99.90
9482;DHT22;4779;48.062;11.672;2023-12-28T05:25:46;3.30;99.90
9482;DHT22;4779;48.062;11.672;2023-12-28T05:28:13;3.30;99.90
9482;DHT22;4779;48.062;11.672;2023-12-28T05:30:40;3.30;99.90
9482;DHT22;4779;48.062;11.672;2023-12-28T05:33:09;3.40;99.90
9482;DHT22;4779;48.062;11.672;2023-12-28T05:35:36;3.50;99.90
9482;DHT22;4779;48.062;11.672;2023-12-28T05:38:03;3.50;99.90
9482;DHT22;4779;48.062;11.672;2023-12-28T05:40:30;3.60;99.90
9482;DHT22;4779;48.062;11.672;2023-12-28T05:42:57;3.70;99.90
9482;DHT22;4779;48.062;11.672;2023-12-28T05:45:24;3.80;99.90
9482;DHT22;4779;48.062;11.672;2023-12-28T05:47:51;4.10;99.90
9482;DHT22;4779;48.062;11.672;2023-12-28T05:50:20;4.10;99.90
9482;DHT22;4779;48.062;11.672;2023-12-28T05:52:48;4.20;99.90
9482;DHT22;4779;48.062;11.672;2023-12-28T05:55:15;4.30;99.90
9482;DHT22;4779;48.062;11.672;2023-12-28T05:57:42;4.50;99.90
9482;DHT22;4779;48.062;11.672;2023-12-28T06:00:10;4.80;99.90
9482;DHT22;4779;48.062;11.672;2023-12-28T06:02:37;4.60;99.90
9482;DHT22;4779;48.062;11.672;2023-12-28T06:05:06;4.60;99.90
9482;DHT22;4779;48.062;11.672;2023-12-28T06:07:34;4.60;99.90
9482;DHT22;4779;48.062;11.672;2023-12-28T06:10:01;4.60;99.90
9482;DHT22;4779;48.062;11.672;2023-12-28T06:12:28;4.50;99.90
9482;DHT22;4779;48.062;11.672;2023-12-28T06:14:56;4.40;99.90
9482;DHT22;4779;48.062;11.672;2023-12-28T06:17:23;4.40;99.90
9482;DHT22;4779;48.062;11.672;2023-12-28T06:19:50;4.30;99.90
9482;DHT22;4779;48.062;11.672;2023-12-28T06:22:17;4.20;99.90
9482;DHT22;4779;48.062;11.672;2023-12-28T06:24:45;4.10;99.90
9482;DHT22;4779;48.062;11.672;2023-12-28T06:27:12;4.10;99.90
9482;DHT22;4779;48.062;11.672;2023-12-28T06:29:39;4.10;99.90
9482;DHT22;4779;48.062;11.672;2023-12-28T06:32:06;4.00;99.90
9482;DHT22;4779;48.062;11.672;2023-12-28T06:34:33;4.00;99.90
9482;DHT22;4779;48.062;11.672;2023-12-28T06:37:00;4.00;99.90
9482;DHT22;4779;48.062;11.672;2023-12-28T06:39:27;3.90;99.90
9482;DHT22;4779;48.062;11.672;2023-12-28T06:41:57;3.90;99.90
9482;DHT22;4779;48.062;11.672;2023-12-28T06:44:24;3.80;99.90
9482;DHT22;4779;48.062;11.672;2023-12-28T06:46:52;3.90;99.90
9482;DHT22;4779;48.062;11.672;2023-12-28T06:49:20;3.80;99.90
9482;DHT22;4779;48.062;11.672;2023-12-28T06:51:47;3.60;99.90
9482;DHT22;4779;48.062;11.672;2023-12-28T06:54:14;3.50;99.90
9482;DHT22;4779;48.062;11.672;2023-12-28T06:56:41;3.60;99.90
9482;DHT22;4779;48.062;11.672;2023-12-28T06:59:19;3.50;99.90
9482;DHT22;4779;48.062;11.672;2023-12-28T07:01:46;3.50;99.90
9482;DHT22;4779;48.062;11.672;2023-12-28T07:04:15;3.40;99.90
9482;DHT22;4779;48.062;11.672;2023-12-28T07:06:42;3.30;99.90
9482;DHT22;4779;48.062;11.672;2023-12-28T07:09:09;3.30;99.90
9482;DHT22;4779;48.062;11.672;2023-12-28T07:11:37;3.30;99.90
9482;DHT22;4779;48.062;11.672;2023-12-28T07:14:04;3.30;99.90
9482;DHT22;4779;48.062;11.672;2023-12-28T07:16:32;3.20;99.90
9482;DHT22;4779;48.062;11.672;2023-12-28T07:18:59;3.20;99.90
9482;DHT22;4779;48.062;11.672;2023-12-28T07:21:26;3.40;99.90
9482;DHT22;4779;48.062;11.672;2023-12-28T07:23:53;3.20;99.90
9482;DHT22;4779;48.062;11.672;2023-12-28T07:26:20;3.30;99.90
9482;DHT22;4779;48.062;11.672;2023-12-28T07:28:47;3.20;99.90
9482;DHT22;4779;48.062;11.672;2023-12-28T07:31:22;3.20;99.90
9482;DHT22;4779;48.062;11.672;2023-12-28T07:33:51;3.20;99.90
9482;DHT22;4779;48.062;11.672;2023-12-28T07:36:18;3.20;99.90
9482;DHT22;4779;48.062;11.672;2023-12-28T07:38:45;3.20;99.90
9482;DHT22;4779;48.062;11.672;2023-12-28T07:41:12;3.10;99.90
9482;DHT22;4779;48.062;11.672;2023-12-28T07:43:39;3.10;99.90
9482;DHT22;4779;48.062;11.672;2023-12-28T07:46:06;3.10;99.90
9482;DHT22;4779;48.062;11.672;2023-12-28T07:48:34;3.10;99.90
9482;DHT22;4779;48.062;11.672;2023-12-28T07:51:05;3.10;99.90
9482;DHT22;4779;48.062;11.672;2023-12-28T07:53:33;3.10;99.90
9482;DHT22;4779;48.062;11.672;2023-12-28T07:56:00;3.20;99.90
9482;DHT22;4779;48.062;11.672;2023-12-28T07:58:27;3.20;99.90
9482;DHT22;4779;48.062;11.672;2023-12-28T08:00:54;3.30;99.90
9482;DHT22;4779;48.062;11.672;2023-12-28T08:03:21;3.30;99.90
9482;DHT22;4779;48.062;11.672;2023-12-28T08:05:48;3.30;99.90
9482;DHT22;4779;48.062;11.672;2023-12-28T08:08:16;3.40;99.90
9482;DHT22;4779;48.062;11.672;2023-12-28T08:10:44;3.40;99.90
9482;DHT22;4779;48.062;11.672;2023-12-28T08:13:11;3.30;99.90
9482;DHT22;4779;48.062;11.672;2023-12-28T08:15:39;3.30;99.90
9482;DHT22;4779;48.062;11.672;2023-12-28T08:18:06;3.40;99.90
9482;DHT22;4779;48.062;11.672;2023-12-28T08:20:33;3.50;99.90
9482;DHT22;4779;48.062;11.672;2023-12-28T08:23:00;3.60;99.90
9482;DHT22;4779;48.062;11.672;2023-12-28T08:25:28;3.70;99.90
9482;DHT22;4779;48.062;11.672;2023-12-28T08:27:54;3.80;99.90
9482;DHT22;4779;48.062;11.672;2023-12-28T08:30:21;3.80;99.90
9482;DHT22;4779;48.062;11.672;2023-12-28T08:32:48;3.90;99.90
9482;DHT22;4779;48.062;11.672;2023-12-28T08:35:16;4.00;99.90
9482;DHT22;4779;48.062;11.672;2023-12-28T08:37:43;4.20;99.90
9482;DHT22;4779;48.062;11.672;2023-12-28T08:40:10;4.20;99.90
9482;DHT22;4779;48.062;11.672;2023-12-28T08:42:39;4.40;99.90
9482;DHT22;4779;48.062;11.672;2023-12-28T08:45:06;4.60;99.90
9482;DHT22;4779;48.062;11.672;2023-12-28T08:47:33;4.90;99.90
9482;DHT22;4779;48.062;11.672;2023-12-28T08:50:00;5.30;99.90
9482;DHT22;4779;48.062;11.672;2023-12-28T08:52:30;5.90;99.90
9482;DHT22;4779;48.062;11.672;2023-12-28T08:54:57;6.30;99.90
9482;DHT22;4779;48.062;11.672;2023-12-28T08:59:55;6.90;99.90
9482;DHT22;4779;48.062;11.672;2023-12-28T09:02:22;7.20;99.00
9482;DHT22;4779;48.062;11.672;2023-12-28T09:04:49;7.40;99.60
9482;DHT22;4779;48.062;11.672;2023-12-28T09:07:16;7.60;99.10
9482;DHT22;4779;48.062;11.672;2023-12-28T09:09:45;7.70;99.10
9482;DHT22;4779;48.062;11.672;2023-12-28T09:24:29;13.20;99.10
9482;DHT22;4779;48.062;11.672;2023-12-28T13:07:32;9.70;98.60
9482;DHT22;4779;48.062;11.672;2023-12-28T13:10:00;9.70;98.90
9482;DHT22;4779;48.062;11.672;2023-12-28T13:12:36;9.70;99.90
9482;DHT22;4779;48.062;11.672;2023-12-28T13:15:05;9.60;99.50
9482;DHT22;4779;48.062;11.672;2023-12-28T13:17:40;9.60;99.80
9482;DHT22;4779;48.062;11.672;2023-12-28T13:20:10;9.50;99.90
9482;DHT22;4779;48.062;11.672;2023-12-28T13:22:37;9.50;99.90
9482;DHT22;4779;48.062;11.672;2023-12-28T13:25:04;9.50;99.70
9482;DHT22;4779;48.062;11.672;2023-12-28T13:27:32;9.60;99.90
9482;DHT22;4779;48.062;11.672;2023-12-28T13:29:59;9.50;99.40
9482;DHT22;4779;48.062;11.672;2023-12-28T13:32:27;9.60;99.90
9482;DHT22;4779;48.062;11.672;2023-12-28T13:34:54;9.60;99.90
9482;DHT22;4779;48.062;11.672;2023-12-28T13:37:22;9.50;99.90
9482;DHT22;4779;48.062;11.672;2023-12-28T13:39:49;9.50;99.90
9482;DHT22;4779;48.062;11.672;2023-12-28T13:42:16;9.40;99.90
9482;DHT22;4779;48.062;11.672;2023-12-28T13:44:43;9.40;99.90
9482;DHT22;4779;48.062;11.672;2023-12-28T13:47:10;9.40;99.90
9482;DHT22;4779;48.062;11.672;2023-12-28T13:49:38;9.30;99.90
9482;DHT22;4779;48.062;11.672;2023-12-28T13:52:06;9.30;99.90
9482;DHT22;4779;48.062;11.672;2023-12-28T13:54:33;9.40;99.90
9482;DHT22;4779;48.062;11.672;2023-12-28T13:57:00;9.40;99.90
9482;DHT22;4779;48.062;11.672;2023-12-28T13:59:27;9.60;99.90
9482;DHT22;4779;48.062;11.672;2023-12-28T14:01:54;9.50;99.90
9482;DHT22;4779;48.062;11.672;2023-12-28T14:04:21;9.40;99.90
9482;DHT22;4779;48.062;11.672;2023-12-28T14:06:49;9.40;99.90
9482;DHT22;4779;48.062;11.672;2023-12-28T14:09:16;9.30;99.90
9482;DHT22;4779;48.062;11.672;2023-12-28T14:11:45;9.30;99.90
9482;DHT22;4779;48.062;11.672;2023-12-28T14:14:13;9.30;99.90
9482;DHT22;4779;48.062;11.672;2023-12-28T14:16:40;9.20;99.90
9482;DHT22;4779;48.062;11.672;2023-12-28T14:19:07;9.10;99.90
9482;DHT22;4779;48.062;11.672;2023-12-28T14:21:35;9.10;99.90
9482;DHT22;4779;48.062;11.672;2023-12-28T14:24:06;9.00;99.90
9482;DHT22;4779;48.062;11.672;2023-12-28T14:26:33;9.00;99.90
9482;DHT22;4779;48.062;11.672;2023-12-28T14:29:01;9.00;99.90
9482;DHT22;4779;48.062;11.672;2023-12-28T14:31:31;9.00;99.90
9482;DHT22;4779;48.062;11.672;2023-12-28T14:33:59;8.90;99.90
9482;DHT22;4779;48.062;11.672;2023-12-28T14:36:30;9.00;99.90
9482;DHT22;4779;48.062;11.672;2023-12-28T14:41:26;8.90;99.90
9482;DHT22;4779;48.062;11.672;2023-12-28T14:43:56;8.90;99.90
9482;DHT22;4779;48.062;11.672;2023-12-28T14:46:23;8.90;99.90
9482;DHT22;4779;48.062;11.672;2023-12-28T14:53:45;8.90;99.90
9482;DHT22;4779;48.062;11.672;2023-12-28T14:56:12;9.00;99.90
9482;DHT22;4779;48.062;11.672;2023-12-28T14:58:41;9.00;99.90
9482;DHT22;4779;48.062;11.672;2023-12-28T15:01:11;8.90;99.90
9482;DHT22;4779;48.062;11.672;2023-12-28T15:03:38;8.90;99.90
9482;DHT22;4779;48.062;11.672;2023-12-28T15:33:11;8.30;99.90
9482;DHT22;4779;48.062;11.672;2023-12-28T15:35:38;8.20;99.90
9482;DHT22;4779;48.062;11.672;2023-12-28T15:38:05;8.20;99.90
9482;DHT22;4779;48.062;11.672;2023-12-28T15:40:32;8.20;99.90
9482;DHT22;4779;48.062;11.672;2023-12-28T15:42:59;8.10;99.90
9482;DHT22;4779;48.062;11.672;2023-12-28T15:45:26;8.00;99.90
9482;DHT22;4779;48.062;11.672;2023-12-28T15:47:54;8.00;99.90
9482;DHT22;4779;48.062;11.672;2023-12-28T15:50:22;8.10;99.90
9482;DHT22;4779;48.062;11.672;2023-12-28T15:52:50;8.00;99.90
9482;DHT22;4779;48.062;11.672;2023-12-28T15:55:17;8.00;99.70
9482;DHT22;4779;48.062;11.672;2023-12-28T15:57:47;8.00;99.40
9482;DHT22;4779;48.062;11.672;2023-12-28T16:00:16;8.00;99.50
9482;DHT22;4779;48.062;11.672;2023-12-28T16:02:44;8.00;99.80
9482;DHT22;4779;48.062;11.672;2023-12-28T16:05:11;8.00;99.90
9482;DHT22;4779;48.062;11.672;2023-12-28T16:07:39;7.90;99.90
9482;DHT22;4779;48.062;11.672;2023-12-28T16:10:07;8.00;99.90
9482;DHT22;4779;48.062;11.672;2023-12-28T16:12:34;7.90;99.90
9482;DHT22;4779;48.062;11.672;2023-12-28T16:15:02;7.80;99.90
9482;DHT22;4779;48.062;11.672;2023-12-28T16:17:30;7.90;98.60
9482;DHT22;4779;48.062;11.672;2023-12-28T16:19:57;7.90;98.50
9482;DHT22;4779;48.062;11.672;2023-12-28T16:22:25;7.90;98.30
9482;DHT22;4779;48.062;11.672;2023-12-28T16:24:53;7.90;98.30
9482;DHT22;4779;48.062;11.672;2023-12-28T16:27:20;7.90;99.00
9482;DHT22;4779;48.062;11.672;2023-12-28T16:29:48;7.90;99.90
9482;DHT22;4779;48.062;11.672;2023-12-28T16:32:16;7.90;99.90
9482;DHT22;4779;48.062;11.672;2023-12-28T16:34:43;7.80;99.90
9482;DHT22;4779;48.062;11.672;2023-12-28T16:37:10;7.80;99.90
9482;DHT22;4779;48.062;11.672;2023-12-28T16:39:37;7.80;99.90
9482;DHT22;4779;48.062;11.672;2023-12-28T16:42:05;7.70;99.20
9482;DHT22;4779;48.062;11.672;2023-12-28T16:44:33;7.80;99.70
9482;DHT22;4779;48.062;11.672;2023-12-28T16:47:00;7.80;99.90
9482;DHT22;4779;48.062;11.672;2023-12-28T16:49:27;7.80;99.90
9482;DHT22;4779;48.062;11.672;2023-12-28T16:51:54;7.80;99.90
9482;DHT22;4779;48.062;11.672;2023-12-28T16:54:21;7.80;99.90
9482;DHT22;4779;48.062;11.672;2023-12-28T16:56:48;7.80;99.50
9482;DHT22;4779;48.062;11.672;2023-12-28T16:59:16;7.90;98.40
9482;DHT22;4779;48.062;11.672;2023-12-28T17:01:43;7.90;98.80
9482;DHT22;4779;48.062;11.672;2023-12-28T17:04:10;8.00;98.80
9482;DHT22;4779;48.062;11.672;2023-12-28T17:06:37;8.00;98.30
9482;DHT22;4779;48.062;11.672;2023-12-28T17:09:05;8.00;98.30
9482;DHT22;4779;48.062;11.672;2023-12-28T17:11:35;8.10;98.50
9482;DHT22;4779;48.062;11.672;2023-12-28T17:14:03;8.20;99.00
9482;DHT22;4779;48.062;11.672;2023-12-28T17:16:32;8.20;98.10
9482;DHT22;4779;48.062;11.672;2023-12-28T17:18:59;8.20;98.60
9482;DHT22;4779;48.062;11.672;2023-12-28T17:21:30;8.20;98.40
9482;DHT22;4779;48.062;11.672;2023-12-28T17:24:00;8.20;98.30
9482;DHT22;4779;48.062;11.672;2023-12-28T17:26:28;8.20;98.20
9482;DHT22;4779;48.062;11.672;2023-12-28T17:29:02;8.20;98.40
9482;DHT22;4779;48.062;11.672;2023-12-28T17:31:33;8.20;97.80
9482;DHT22;4779;48.062;11.672;2023-12-28T17:34:01;8.30;98.20
9482;DHT22;4779;48.062;11.672;2023-12-28T17:36:29;8.20;98.80
9482;DHT22;4779;48.062;11.672;2023-12-28T17:38:58;8.20;98.40
9482;DHT22;4779;48.062;11.672;2023-12-28T17:41:30;8.20;98.60
9482;DHT22;4779;48.062;11.672;2023-12-28T17:43:59;8.20;98.40
9482;DHT22;4779;48.062;11.672;2023-12-28T17:46:40;8.30;97.70
9482;DHT22;4779;48.062;11.672;2023-12-28T17:49:10;8.30;98.40
9482;DHT22;4779;48.062;11.672;2023-12-28T17:51:38;8.30;98.30
9482;DHT22;4779;48.062;11.672;2023-12-28T17:54:07;8.30;98.50
9482;DHT22;4779;48.062;11.672;2023-12-28T17:56:34;8.30;98.80
9482;DHT22;4779;48.062;11.672;2023-12-28T17:59:01;8.30;99.00
9482;DHT22;4779;48.062;11.672;2023-12-28T18:01:28;8.30;99.10
9482;DHT22;4779;48.062;11.672;2023-12-28T18:03:56;8.20;99.40
9482;DHT22;4779;48.062;11.672;2023-12-28T18:06:23;8.20;99.80
9482;DHT22;4779;48.062;11.672;2023-12-28T18:08:51;8.10;99.90
9482;DHT22;4779;48.062;11.672;2023-12-28T18:11:18;8.10;99.90
9482;DHT22;4779;48.062;11.672;2023-12-28T18:13:45;8.10;99.90
9482;DHT22;4779;48.062;11.672;2023-12-28T18:16:12;8.00;99.90
9482;DHT22;4779;48.062;11.672;2023-12-28T18:18:39;8.00;99.90
9482;DHT22;4779;48.062;11.672;2023-12-28T18:21:12;8.00;99.90
9482;DHT22;4779;48.062;11.672;2023-12-28T18:23:39;8.10;99.90
9482;DHT22;4779;48.062;11.672;2023-12-28T18:26:07;8.10;99.90
9482;DHT22;4779;48.062;11.672;2023-12-28T18:28:34;8.10;99.90
9482;DHT22;4779;48.062;11.672;2023-12-28T18:31:01;8.20;99.90
9482;DHT22;4779;48.062;11.672;2023-12-28T18:33:28;8.20;99.90
9482;DHT22;4779;48.062;11.672;2023-12-28T18:35:55;8.00;99.90
9482;DHT22;4779;48.062;11.672;2023-12-28T18:38:25;8.10;99.90
9482;DHT22;4779;48.062;11.672;2023-12-28T18:40:52;8.10;99.90
9482;DHT22;4779;48.062;11.672;2023-12-28T18:43:19;8.20;99.90
9482;DHT22;4779;48.062;11.672;2023-12-28T18:45:46;8.20;99.90
9482;DHT22;4779;48.062;11.672;2023-12-28T18:48:13;8.20;99.60
9482;DHT22;4779;48.062;11.672;2023-12-28T18:50:43;8.20;99.30
9482;DHT22;4779;48.062;11.672;2023-12-28T18:53:10;8.20;99.90
9482;DHT22;4779;48.062;11.672;2023-12-28T18:55:41;8.20;99.40
9482;DHT22;4779;48.062;11.672;2023-12-28T18:58:08;8.10;99.40
9482;DHT22;4779;48.062;11.672;2023-12-28T19:00:36;8.10;99.90
9482;DHT22;4779;48.062;11.672;2023-12-28T19:03:04;8.20;99.20
9482;DHT22;4779;48.062;11.672;2023-12-28T19:05:31;8.20;98.90
9482;DHT22;4779;48.062;11.672;2023-12-28T19:07:58;8.10;99.00
9482;DHT22;4779;48.062;11.672;2023-12-28T19:10:25;8.10;98.60
9482;DHT22;4779;48.062;11.672;2023-12-28T19:12:54;8.10;98.50
9482;DHT22;4779;48.062;11.672;2023-12-28T19:15:21;8.10;98.20
9482;DHT22;4779;48.062;11.672;2023-12-28T19:17:48;8.10;97.70
9482;DHT22;4779;48.062;11.672;2023-12-28T19:20:15;8.10;97.20
9482;DHT22;4779;48.062;11.672;2023-12-28T19:22:42;8.10;97.10
9482;DHT22;4779;48.062;11.672;2023-12-28T19:25:09;8.20;97.40
9482;DHT22;4779;48.062;11.672;2023-12-28T19:27:37;8.20;97.70
9482;DHT22;4779;48.062;11.672;2023-12-28T19:30:06;8.10;97.90
9482;DHT22;4779;48.062;11.672;2023-12-28T19:32:34;8.10;97.20
9482;DHT22;4779;48.062;11.672;2023-12-28T19:35:01;8.10;97.60
9482;DHT22;4779;48.062;11.672;2023-12-28T19:37:28;8.00;99.40
9482;DHT22;4779;48.062;11.672;2023-12-28T19:39:55;8.00;98.00
9482;DHT22;4779;48.062;11.672;2023-12-28T19:42:22;7.90;97.90
9482;DHT22;4779;48.062;11.672;2023-12-28T19:44:49;7.90;98.00
9482;DHT22;4779;48.062;11.672;2023-12-28T19:47:17;7.90;97.00
9482;DHT22;4779;48.062;11.672;2023-12-28T19:49:44;7.90;97.20
9482;DHT22;4779;48.062;11.672;2023-12-28T19:52:11;7.90;97.70
9482;DHT22;4779;48.062;11.672;2023-12-28T19:54:43;7.90;97.60
9482;DHT22;4779;48.062;11.672;2023-12-28T19:57:10;7.80;97.30
9482;DHT22;4779;48.062;11.672;2023-12-28T19:59:37;7.80;97.50
9482;DHT22;4779;48.062;11.672;2023-12-28T20:02:04;7.70;97.90
9482;DHT22;4779;48.062;11.672;2023-12-28T20:04:35;7.80;98.50
9482;DHT22;4779;48.062;11.672;2023-12-28T20:07:02;7.70;98.50
9482;DHT22;4779;48.062;11.672;2023-12-28T20:09:30;7.70;98.60
9482;DHT22;4779;48.062;11.672;2023-12-28T20:11:57;7.60;98.90
9482;DHT22;4779;48.062;11.672;2023-12-28T20:14:24;7.60;98.70
9482;DHT22;4779;48.062;11.672;2023-12-28T20:16:51;7.60;97.90
9482;DHT22;4779;48.062;11.672;2023-12-28T20:19:18;7.60;97.90
9482;DHT22;4779;48.062;11.672;2023-12-28T20:21:46;7.60;97.60
9482;DHT22;4779;48.062;11.672;2023-12-28T20:24:13;7.50;98.50
9482;DHT22;4779;48.062;11.672;2023-12-28T20:26:40;7.50;98.50
9482;DHT22;4779;48.062;11.672;2023-12-28T20:29:07;7.40;98.20
9482;DHT22;4779;48.062;11.672;2023-12-28T20:31:34;7.40;98.50
9482;DHT22;4779;48.062;11.672;2023-12-28T20:34:01;7.40;99.70
9482;DHT22;4779;48.062;11.672;2023-12-28T20:36:28;7.30;99.60